Time;durP1;ratioP1;P1;durP2;ratioP2;P2;SDS_P1;SDS_P2;PMS_P1;PMS_P2;Temp;Humidity;BMP_temperature;BMP_pressure;BME280_temperature;BME280_humidity;BME280_pressure;Samples;Min_cycle;Max_cycle;Signal;HPM_P1;HPM_P2
2023/09/24 00:01:13;;;;;;;4.53;3.03;;;;;;;;;;5079328;28;20223;-66
2023/09/24 00:03:41;;;;;;;3.87;3.00;;;;;;;;;;5079472;28;20237;-66
2023/09/24 00:06:10;;;;;;;3.97;3.00;;;;;;;;;;5079510;28;20294;-66
2023/09/24 00:08:38;;;;;;;6.77;2.97;;;;;;;;;;5079347;28;20249;-66
2023/09/24 00:11:08;;;;;;;2.90;2.70;;;;;;;;;;5079004;28;20231;-66
2023/09/24 00:13:36;;;;;;;3.47;2.70;;;;;;;;;;5079138;28;20608;-66
2023/09/24 00:16:06;;;;;;;4.70;2.73;;;;;;;;;;5079229;28;20210;-66
2023/09/24 00:18:35;;;;;;;2.40;2.20;;;;;;;;;;5079179;28;20241;-66
2023/09/24 00:21:04;;;;;;;4.53;2.50;;;;;;;;;;5079142;28;20257;-67
2023/09/24 00:23:32;;;;;;;3.60;2.53;;;;;;;;;;5079020;28;20212;-66
2023/09/24 00:26:00;;;;;;;3.80;2.80;;;;;;;;;;5078701;28;20658;-66
2023/09/24 00:28:29;;;;;;;2.70;2.30;;;;;;;;;;5078759;28;20210;-66
2023/09/24 00:30:58;;;;;;;4.63;2.77;;;;;;;;;;5078831;28;20234;-67
2023/09/24 00:33:26;;;;;;;3.93;2.50;;;;;;;;;;5078799;28;20210;-67
2023/09/24 00:35:55;;;;;;;3.10;2.50;;;;;;;;;;5078695;28;20252;-66
2023/09/24 00:38:23;;;;;;;3.10;2.80;;;;;;;;;;5078679;28;20213;-67
2023/09/24 00:40:51;;;;;;;2.93;2.60;;;;;;;;;;5078222;28;20284;-67
2023/09/24 00:43:25;;;;;;;2.43;1.80;;;;;;;;;;5078663;28;20206;-66
2023/09/24 00:45:55;;;;;;;3.27;2.43;;;;;;;;;;5078433;28;20272;-66
2023/09/24 00:48:27;;;;;;;4.73;2.23;;;;;;;;;;5078663;28;20223;-66
2023/09/24 00:50:58;;;;;;;2.43;2.23;;;;;;;;;;5077828;28;20229;-67
2023/09/24 00:53:29;;;;;;;3.37;2.20;;;;;;;;;;5078261;28;20257;-67
2023/09/24 00:55:57;;;;;;;4.13;2.43;;;;;;;;;;5078088;28;20983;-67
2023/09/24 00:58:30;;;;;;;2.80;2.30;;;;;;;;;;5078344;28;20203;-66
2023/09/24 01:01:00;;;;;;;2.77;2.30;;;;;;;;;;5078189;28;20304;-67
2023/09/24 01:03:28;;;;;;;3.20;2.07;;;;;;;;;;5078099;28;20206;-67
2023/09/24 01:05:59;;;;;;;4.00;2.40;;;;;;;;;;5078038;28;20692;-67
2023/09/24 01:08:31;;;;;;;4.03;3.00;;;;;;;;;;5077927;28;20280;-66
2023/09/24 01:10:59;;;;;;;1.90;1.73;;;;;;;;;;5077659;28;20595;-67
2023/09/24 01:13:36;;;;;;;4.00;2.30;;;;;;;;;;5078283;28;20245;-67
2023/09/24 01:16:07;;;;;;;4.80;1.93;;;;;;;;;;5078028;28;20605;-67
2023/09/24 01:18:37;;;;;;;2.70;1.40;;;;;;;;;;5078147;28;20209;-67
2023/09/24 01:21:11;;;;;;;3.77;1.67;;;;;;;;;;5077872;28;20238;-67
2023/09/24 01:23:42;;;;;;;2.20;1.63;;;;;;;;;;5077923;28;20202;-67
2023/09/24 01:26:11;;;;;;;1.40;1.30;;;;;;;;;;5077836;28;20252;-66
2023/09/24 01:28:39;;;;;;;1.93;1.37;;;;;;;;;;5078046;28;20260;-66
2023/09/24 01:31:08;;;;;;;5.60;1.70;;;;;;;;;;5077591;28;20230;-66
2023/09/24 01:33:39;;;;;;;3.97;1.57;;;;;;;;;;5077725;28;20549;-67
2023/09/24 01:36:08;;;;;;;1.43;1.27;;;;;;;;;;5077953;28;20284;-66
2023/09/24 01:38:37;;;;;;;3.27;1.33;;;;;;;;;;5077817;28;20203;-66
2023/09/24 01:41:08;;;;;;;3.83;1.57;;;;;;;;;;5077486;28;20222;-66
2023/09/24 01:43:36;;;;;;;2.00;1.30;;;;;;;;;;5078032;28;20213;-66
2023/09/24 01:46:07;;;;;;;4.40;1.70;;;;;;;;;;5077488;28;20275;-66
2023/09/24 01:48:36;;;;;;;3.30;1.60;;;;;;;;;;5077678;28;20228;-66
2023/09/24 01:51:07;;;;;;;2.20;1.07;;;;;;;;;;5077898;28;20222;-66
2023/09/24 01:53:36;;;;;;;2.20;1.53;;;;;;;;;;5077335;28;20237;-66
2023/09/24 01:56:04;;;;;;;1.67;1.20;;;;;;;;;;5077532;28;20293;-66
2023/09/24 01:58:35;;;;;;;6.57;1.73;;;;;;;;;;5077904;28;20217;-66
2023/09/24 02:01:03;;;;;;;3.47;1.40;;;;;;;;;;5077496;28;20222;-66
2023/09/24 02:03:31;;;;;;;3.40;1.50;;;;;;;;;;5078811;28;20300;-66
2023/09/24 02:05:59;;;;;;;2.93;1.60;;;;;;;;;;5081669;28;20213;-66
2023/09/24 02:08:27;;;;;;;2.93;1.60;;;;;;;;;;5081414;28;20568;-66
2023/09/24 02:10:56;;;;;;;2.50;1.40;;;;;;;;;;5081436;28;20233;-65
2023/09/24 02:13:24;;;;;;;3.77;1.60;;;;;;;;;;5081283;28;20222;-64
2023/09/24 02:15:53;;;;;;;2.20;1.40;;;;;;;;;;5081366;28;20657;-63
2023/09/24 02:18:22;;;;;;;3.40;1.57;;;;;;;;;;5081498;28;20202;-62
2023/09/24 02:20:52;;;;;;;1.70;1.47;;;;;;;;;;5081840;28;20230;-63
2023/09/24 02:23:22;;;;;;;3.53;1.60;;;;;;;;;;5081297;28;20205;-62
2023/09/24 02:25:51;;;;;;;2.60;1.50;;;;;;;;;;5081708;28;20217;-63
2023/09/24 02:28:19;;;;;;;3.43;1.70;;;;;;;;;;5081068;28;20206;-64
2023/09/24 02:30:47;;;;;;;2.40;1.37;;;;;;;;;;5081364;28;20279;-63
2023/09/24 02:33:17;;;;;;;2.00;1.40;;;;;;;;;;5081243;28;20229;-63
2023/09/24 02:35:45;;;;;;;2.33;1.40;;;;;;;;;;5081211;28;20206;-63
2023/09/24 02:38:14;;;;;;;2.87;1.37;;;;;;;;;;5080707;28;20259;-62
2023/09/24 02:40:42;;;;;;;3.07;1.47;;;;;;;;;;5080738;28;20229;-63
2023/09/24 02:43:10;;;;;;;2.80;1.17;;;;;;;;;;5080707;28;20202;-63
2023/09/24 02:45:39;;;;;;;1.70;1.23;;;;;;;;;;5080994;28;20210;-63
2023/09/24 02:48:07;;;;;;;1.80;1.47;;;;;;;;;;5080688;28;20275;-63
2023/09/24 02:50:39;;;;;;;1.93;1.23;;;;;;;;;;5080773;28;20252;-63
2023/09/24 02:53:09;;;;;;;3.03;1.50;;;;;;;;;;5080343;28;20244;-63
2023/09/24 02:55:37;;;;;;;3.87;1.77;;;;;;;;;;5080772;28;20210;-63
2023/09/24 02:58:05;;;;;;;2.33;1.40;;;;;;;;;;5080836;28;20209;-63
2023/09/24 03:00:36;;;;;;;2.97;1.60;;;;;;;;;;5080101;28;20265;-63
2023/09/24 03:03:05;;;;;;;3.10;1.40;;;;;;;;;;5081361;28;20202;-62
2023/09/24 03:05:34;;;;;;;1.60;1.20;;;;;;;;;;5080349;28;20268;-62
2023/09/24 03:08:05;;;;;;;1.60;1.30;;;;;;;;;;5080598;28;20216;-63
2023/09/24 03:10:34;;;;;;;3.00;2.23;;;;;;;;;;5080394;28;20256;-62
2023/09/24 03:13:04;;;;;;;2.97;1.73;;;;;;;;;;5080042;28;20589;-62
2023/09/24 03:15:33;;;;;;;1.87;1.13;;;;;;;;;;5080003;28;20205;-63
2023/09/24 03:18:01;;;;;;;2.17;1.43;;;;;;;;;;5080521;28;20217;-63
2023/09/24 03:20:30;;;;;;;3.03;1.50;;;;;;;;;;5080220;28;20312;-63
2023/09/24 03:23:02;;;;;;;2.40;1.67;;;;;;;;;;5080278;28;20259;-64
2023/09/24 03:25:32;;;;;;;2.13;1.37;;;;;;;;;;5080153;28;20206;-62
2023/09/24 03:28:01;;;;;;;3.03;1.37;;;;;;;;;;5080069;28;20236;-63
2023/09/24 03:30:30;;;;;;;1.70;1.33;;;;;;;;;;5079850;28;20233;-62
2023/09/24 03:32:58;;;;;;;1.93;1.30;;;;;;;;;;5079756;28;20234;-63
2023/09/24 03:35:27;;;;;;;3.73;1.30;;;;;;;;;;5080278;28;20234;-62
2023/09/24 03:37:56;;;;;;;1.73;1.40;;;;;;;;;;5079936;28;20210;-62
2023/09/24 03:40:26;;;;;;;2.70;1.57;;;;;;;;;;5079899;28;20222;-63
2023/09/24 03:42:55;;;;;;;3.67;1.70;;;;;;;;;;5079809;28;20206;-64
2023/09/24 03:45:24;;;;;;;2.37;1.47;;;;;;;;;;5079781;28;20202;-62
2023/09/24 03:47:53;;;;;;;2.17;1.30;;;;;;;;;;5079979;28;20217;-62
2023/09/24 03:50:21;;;;;;;2.13;1.60;;;;;;;;;;5079756;28;20298;-62
2023/09/24 03:52:50;;;;;;;3.43;1.47;;;;;;;;;;5078481;28;20246;-64
2023/09/24 03:55:19;;;;;;;1.93;1.43;;;;;;;;;;5078669;28;20273;-62
2023/09/24 03:57:47;;;;;;;1.40;1.30;;;;;;;;;;5078382;28;20240;-62
2023/09/24 04:00:18;;;;;;;3.13;1.47;;;;;;;;;;5078469;28;20317;-63
2023/09/24 04:02:47;;;;;;;1.50;1.40;;;;;;;;;;5065363;28;20241;-62
2023/09/24 04:05:19;;;;;;;3.83;1.77;;;;;;;;;;5078524;28;20289;-62
2023/09/24 04:07:49;;;;;;;1.60;1.47;;;;;;;;;;5078615;28;20213;-64
2023/09/24 04:10:18;;;;;;;1.37;1.03;;;;;;;;;;5078295;28;20237;-62
2023/09/24 04:12:49;;;;;;;3.97;1.43;;;;;;;;;;5078090;28;20265;-62
2023/09/24 04:15:20;;;;;;;1.27;1.17;;;;;;;;;;5078130;28;20618;-62
2023/09/24 04:17:49;;;;;;;3.47;1.50;;;;;;;;;;5078424;28;20237;-64
2023/09/24 04:20:19;;;;;;;1.83;1.50;;;;;;;;;;5077927;28;20226;-63
2023/09/24 04:22:48;;;;;;;3.03;1.50;;;;;;;;;;5078291;28;20206;-62
2023/09/24 04:25:20;;;;;;;1.60;1.50;;;;;;;;;;5077927;28;20681;-63
2023/09/24 04:27:49;;;;;;;4.93;1.70;;;;;;;;;;5077369;28;20614;-62
2023/09/24 04:30:18;;;;;;;4.53;1.30;;;;;;;;;;5077749;28;20233;-61
2023/09/24 04:32:48;;;;;;;1.63;1.43;;;;;;;;;;5077853;28;20644;-63
2023/09/24 04:35:19;;;;;;;1.90;1.43;;;;;;;;;;5077950;28;20236;-63
2023/09/24 04:37:47;;;;;;;1.10;1.00;;;;;;;;;;5077759;28;20206;-63
2023/09/24 04:40:15;;;;;;;2.10;1.60;;;;;;;;;;5077792;28;20234;-63
2023/09/24 04:42:44;;;;;;;3.20;1.50;;;;;;;;;;5077473;28;20249;-63
2023/09/24 04:45:14;;;;;;;3.13;1.27;;;;;;;;;;5077696;28;20206;-61
2023/09/24 04:47:43;;;;;;;2.73;1.30;;;;;;;;;;5077883;28;20229;-63
2023/09/24 04:50:12;;;;;;;3.27;1.60;;;;;;;;;;5077830;28;20256;-63
2023/09/24 04:52:44;;;;;;;2.03;1.60;;;;;;;;;;5033605;28;1260256;-63
2023/09/24 04:55:13;;;;;;;3.27;1.40;;;;;;;;;;5078417;28;20317;-62
2023/09/24 04:57:41;;;;;;;1.80;1.53;;;;;;;;;;5077941;28;20272;-62
2023/09/24 05:00:10;;;;;;;2.60;1.50;;;;;;;;;;5078058;28;20233;-64
2023/09/24 05:02:39;;;;;;;4.03;1.40;;;;;;;;;;5078334;28;20209;-63
2023/09/24 05:05:07;;;;;;;2.97;1.13;;;;;;;;;;5079044;28;20256;-63
2023/09/24 05:07:37;;;;;;;1.43;1.00;;;;;;;;;;5079233;28;20210;-63
2023/09/24 05:10:06;;;;;;;2.57;1.63;;;;;;;;;;5078016;28;20230;-63
2023/09/24 05:12:34;;;;;;;1.37;1.20;;;;;;;;;;5077005;28;20213;-63
2023/09/24 05:15:03;;;;;;;1.73;1.00;;;;;;;;;;5077650;28;20222;-62
2023/09/24 05:17:33;;;;;;;3.13;1.27;;;;;;;;;;5077871;28;20198;-62
2023/09/24 05:20:02;;;;;;;2.87;1.63;;;;;;;;;;5077613;28;20226;-62
2023/09/24 05:22:30;;;;;;;1.90;0.90;;;;;;;;;;5077652;28;20217;-62
2023/09/24 05:25:00;;;;;;;2.70;1.00;;;;;;;;;;5077077;28;20202;-64
2023/09/24 05:27:29;;;;;;;1.73;1.43;;;;;;;;;;5078024;28;20209;-64
2023/09/24 05:29:57;;;;;;;3.60;1.30;;;;;;;;;;5077997;28;20234;-62
2023/09/24 05:32:25;;;;;;;1.60;1.20;;;;;;;;;;5078085;28;20273;-63
2023/09/24 05:34:54;;;;;;;2.33;1.10;;;;;;;;;;5077893;28;20261;-63
2023/09/24 05:37:22;;;;;;;1.93;1.00;;;;;;;;;;5077833;28;20213;-64
2023/09/24 05:39:50;;;;;;;1.80;1.13;;;;;;;;;;5077528;28;20206;-63
2023/09/24 05:42:20;;;;;;;2.50;1.17;;;;;;;;;;5077872;28;20210;-63
2023/09/24 05:44:48;;;;;;;1.50;1.27;;;;;;;;;;5078692;28;20206;-63
2023/09/24 05:47:16;;;;;;;2.27;1.20;;;;;;;;;;5077966;28;20209;-64
2023/09/24 05:49:44;;;;;;;1.30;1.10;;;;;;;;;;5077575;28;20206;-63
2023/09/24 05:52:12;;;;;;;3.07;1.63;;;;;;;;;;5077703;28;20245;-63
2023/09/24 05:54:41;;;;;;;2.90;1.40;;;;;;;;;;5076745;28;20226;-63
2023/09/24 05:57:10;;;;;;;3.03;1.30;;;;;;;;;;5077408;28;20214;-63
2023/09/24 05:59:40;;;;;;;1.57;1.20;;;;;;;;;;5076941;28;20257;-63
2023/09/24 06:02:08;;;;;;;2.90;1.40;;;;;;;;;;5077271;28;20208;-62
2023/09/24 06:04:36;;;;;;;3.20;2.00;;;;;;;;;;5076990;28;20205;-62
2023/09/24 06:07:05;;;;;;;2.10;1.50;;;;;;;;;;5076521;28;20264;-62
2023/09/24 06:09:33;;;;;;;1.53;1.10;;;;;;;;;;5077630;28;20673;-62
2023/09/24 06:12:02;;;;;;;2.33;1.37;;;;;;;;;;5078769;28;20218;-62
2023/09/24 06:14:31;;;;;;;4.27;1.70;;;;;;;;;;5077707;28;20258;-63
2023/09/24 06:17:00;;;;;;;3.60;1.30;;;;;;;;;;5077305;28;20284;-64
2023/09/24 06:19:28;;;;;;;1.27;1.17;;;;;;;;;;5077408;28;20624;-64
2023/09/24 06:21:57;;;;;;;3.67;1.60;;;;;;;;;;5077484;28;20275;-65
2023/09/24 06:24:25;;;;;;;1.93;1.40;;;;;;;;;;5077561;28;20315;-66
2023/09/24 06:26:53;;;;;;;1.50;1.07;;;;;;;;;;5077043;28;20205;-64
2023/09/24 06:29:21;;;;;;;2.50;1.83;;;;;;;;;;5077337;28;20671;-63
2023/09/24 06:31:50;;;;;;;1.17;1.10;;;;;;;;;;5077408;28;20238;-64
2023/09/24 06:34:20;;;;;;;2.33;0.97;;;;;;;;;;5077113;28;20275;-64
2023/09/24 06:36:48;;;;;;;3.30;1.40;;;;;;;;;;5077449;28;20236;-65
2023/09/24 06:39:16;;;;;;;3.07;1.30;;;;;;;;;;5076515;28;20202;-61
2023/09/24 06:41:44;;;;;;;2.90;1.13;;;;;;;;;;5076645;28;20256;-62
2023/09/24 06:44:14;;;;;;;1.50;1.40;;;;;;;;;;5076711;28;20194;-64
2023/09/24 06:46:42;;;;;;;3.27;1.33;;;;;;;;;;5076770;28;20198;-63
2023/09/24 06:49:10;;;;;;;1.40;1.20;;;;;;;;;;5077103;28;20209;-64
2023/09/24 06:51:40;;;;;;;1.40;1.30;;;;;;;;;;5079751;28;20686;-64
2023/09/24 06:54:08;;;;;;;2.00;1.40;;;;;;;;;;5080650;28;20259;-64
2023/09/24 06:56:36;;;;;;;3.03;1.30;;;;;;;;;;5080531;28;20194;-65
2023/09/24 06:59:09;;;;;;;2.03;1.30;;;;;;;;;;5080009;28;20198;-64
2023/09/24 07:01:37;;;;;;;2.07;1.27;;;;;;;;;;5079406;28;20760;-64
2023/09/24 07:04:05;;;;;;;2.60;1.27;;;;;;;;;;5080018;28;20252;-64
2023/09/24 07:06:34;;;;;;;2.03;1.00;;;;;;;;;;5078001;28;20205;-64
2023/09/24 07:09:05;;;;;;;3.00;1.00;;;;;;;;;;5080580;28;20213;-64
2023/09/24 07:11:36;;;;;;;2.17;1.13;;;;;;;;;;5080088;28;20677;-64
2023/09/24 07:14:05;;;;;;;3.57;1.23;;;;;;;;;;5080449;28;20206;-64
2023/09/24 07:16:33;;;;;;;2.37;1.07;;;;;;;;;;5080269;28;20217;-63
2023/09/24 07:19:02;;;;;;;2.30;1.30;;;;;;;;;;5080306;28;20673;-65
2023/09/24 07:21:31;;;;;;;1.47;1.13;;;;;;;;;;5080374;28;20230;-63
2023/09/24 07:24:06;;;;;;;3.97;1.47;;;;;;;;;;5080077;28;20233;-65
2023/09/24 07:26:34;;;;;;;3.23;1.53;;;;;;;;;;5079317;28;20286;-64
2023/09/24 07:29:02;;;;;;;2.73;1.27;;;;;;;;;;5085393;28;20206;-64
2023/09/24 07:31:31;;;;;;;2.10;1.23;;;;;;;;;;5080443;28;20222;-64
2023/09/24 07:34:00;;;;;;;1.47;1.07;;;;;;;;;;5080245;28;20202;-64
2023/09/24 07:36:30;;;;;;;1.80;1.20;;;;;;;;;;5079929;28;20263;-65
2023/09/24 07:39:09;;;;;;;3.13;1.17;;;;;;;;;;5079527;28;20224;-65
2023/09/24 07:41:38;;;;;;;2.33;1.10;;;;;;;;;;5079668;28;20233;-65
2023/09/24 07:44:06;;;;;;;4.03;1.60;;;;;;;;;;5080048;28;20233;-63
2023/09/24 07:46:34;;;;;;;2.03;1.83;;;;;;;;;;5079934;28;20206;-65
2023/09/24 07:49:05;;;;;;;3.30;1.63;;;;;;;;;;5080148;28;20211;-64
2023/09/24 07:51:34;;;;;;;3.23;2.20;;;;;;;;;;5079384;28;20721;-65
2023/09/24 07:54:02;;;;;;;2.67;2.03;;;;;;;;;;5079446;28;20210;-65
2023/09/24 07:56:32;;;;;;;5.33;2.13;;;;;;;;;;5068403;28;20230;-65
2023/09/24 07:59:02;;;;;;;2.80;2.50;;;;;;;;;;5074637;28;20205;-65
2023/09/24 08:01:30;;;;;;;1.90;1.80;;;;;;;;;;5072638;28;20310;-64
2023/09/24 08:03:59;;;;;;;2.27;1.50;;;;;;;;;;5075476;28;20580;-64
2023/09/24 08:06:28;;;;;;;3.83;1.80;;;;;;;;;;5079485;28;20198;-64
2023/09/24 08:08:57;;;;;;;4.77;2.27;;;;;;;;;;5079179;28;20259;-64
2023/09/24 08:11:46;;;;;;;1.80;1.30;;;;;;;;;;5079012;28;20230;-64
2023/09/24 08:14:14;;;;;;;4.23;1.40;;;;;;;;;;5069433;28;20230;-64
2023/09/24 08:16:42;;;;;;;3.63;1.47;;;;;;;;;;5079394;28;20225;-64
2023/09/24 08:19:11;;;;;;;2.03;1.33;;;;;;;;;;5079109;28;20232;-64
2023/09/24 08:21:39;;;;;;;2.83;1.87;;;;;;;;;;5078960;28;20619;-64
2023/09/24 08:24:08;;;;;;;2.17;1.53;;;;;;;;;;5078441;28;20286;-65
2023/09/24 08:26:36;;;;;;;1.33;1.23;;;;;;;;;;5076968;28;20931;-65
2023/09/24 08:29:07;;;;;;;1.90;1.40;;;;;;;;;;5074109;28;20248;-65
2023/09/24 08:31:35;;;;;;;5.63;2.97;;;;;;;;;;5077592;28;20226;-65
2023/09/24 08:34:04;;;;;;;5.30;2.60;;;;;;;;;;5078323;28;20569;-65
2023/09/24 08:36:32;;;;;;;3.13;2.77;;;;;;;;;;5078606;28;20275;-64
2023/09/24 08:39:03;;;;;;;4.07;3.77;;;;;;;;;;5078606;28;20268;-64
2023/09/24 08:41:33;;;;;;;5.20;4.80;;;;;;;;;;5075026;28;20226;-65
2023/09/24 08:44:04;;;;;;;3.03;2.73;;;;;;;;;;5066407;28;20657;-64
2023/09/24 08:46:33;;;;;;;4.13;2.67;;;;;;;;;;5075216;28;20198;-67
2023/09/24 08:49:02;;;;;;;2.03;1.77;;;;;;;;;;5078057;28;20662;-66
2023/09/24 08:51:32;;;;;;;5.73;3.73;;;;;;;;;;5078015;28;20221;-67
2023/09/24 08:54:01;;;;;;;4.07;3.67;;;;;;;;;;5078103;28;20229;-65
2023/09/24 08:56:29;;;;;;;2.93;2.63;;;;;;;;;;5077656;28;20222;-65
2023/09/24 08:58:57;;;;;;;5.23;4.67;;;;;;;;;;5067603;28;20223;-65
2023/09/24 09:01:25;;;;;;;4.20;3.90;;;;;;;;;;5077640;28;20550;-65
2023/09/24 09:03:55;;;;;;;4.40;4.10;;;;;;;;;;5074871;28;20240;-66
2023/09/24 09:06:32;;;;;;;2.93;2.40;;;;;;;;;;5077419;28;20208;-66
2023/09/24 09:09:01;;;;;;;2.53;1.83;;;;;;;;;;5075369;28;20225;-66
2023/09/24 09:11:39;;;;;;;3.93;1.70;;;;;;;;;;5075556;28;20631;-65
2023/09/24 09:14:07;;;;;;;3.93;1.70;;;;;;;;;;5073659;28;20281;-65
2023/09/24 09:16:53;;;;;;;2.87;2.00;;;;;;;;;;5077674;28;20287;-66
2023/09/24 09:19:24;;;;;;;1.80;1.70;;;;;;;;;;5076974;28;20650;-64
2023/09/24 09:21:54;;;;;;;2.37;2.00;;;;;;;;;;5076584;28;20256;-64
2023/09/24 09:24:24;;;;;;;1.90;1.40;;;;;;;;;;5077318;28;20198;-64
2023/09/24 09:26:54;;;;;;;2.50;1.63;;;;;;;;;;5077034;28;20201;-65
2023/09/24 09:29:24;;;;;;;4.23;3.40;;;;;;;;;;5076012;28;20238;-66
2023/09/24 09:31:54;;;;;;;3.10;2.20;;;;;;;;;;5076179;28;20224;-67
2023/09/24 09:34:25;;;;;;;2.37;1.60;;;;;;;;;;5074825;28;20198;-66
2023/09/24 09:36:53;;;;;;;2.07;1.87;;;;;;;;;;5077120;28;20616;-65
2023/09/24 09:39:23;;;;;;;2.87;1.90;;;;;;;;;;5073682;28;20264;-69
2023/09/24 09:41:52;;;;;;;3.10;2.80;;;;;;;;;;5076897;28;20245;-67
2023/09/24 09:44:25;;;;;;;3.60;3.03;;;;;;;;;;5077200;28;20693;-65
2023/09/24 09:47:00;;;;;;;5.40;4.00;;;;;;;;;;5077169;28;20236;-66
2023/09/24 09:49:32;;;;;;;6.57;4.67;;;;;;;;;;5074160;28;20208;-67
2023/09/24 09:52:02;;;;;;;6.40;5.80;;;;;;;;;;5076433;28;20702;-66
2023/09/24 09:54:33;;;;;;;5.27;4.43;;;;;;;;;;5077010;28;20198;-66
2023/09/24 09:57:03;;;;;;;4.83;4.27;;;;;;;;;;5076904;28;20218;-65
2023/09/24 09:59:32;;;;;;;2.80;2.60;;;;;;;;;;5076700;28;20202;-65
2023/09/24 10:02:01;;;;;;;2.60;2.40;;;;;;;;;;5076494;28;20217;-65
2023/09/24 10:04:31;;;;;;;5.67;5.20;;;;;;;;;;5076943;28;20232;-65
2023/09/24 10:07:02;;;;;;;5.43;4.90;;;;;;;;;;5076893;28;20561;-65
2023/09/24 10:09:39;;;;;;;4.87;4.47;;;;;;;;;;5073181;28;20202;-66
2023/09/24 10:12:08;;;;;;;2.33;2.20;;;;;;;;;;5076291;28;20205;-66
2023/09/24 10:14:39;;;;;;;6.50;5.50;;;;;;;;;;5075622;28;20205;-67
2023/09/24 10:17:24;;;;;;;5.70;4.67;;;;;;;;;;5074409;28;20256;-68
2023/09/24 10:19:54;;;;;;;4.90;4.50;;;;;;;;;;5074806;28;20217;-68
2023/09/24 10:22:26;;;;;;;2.83;2.63;;;;;;;;;;5074736;28;20205;-65
2023/09/24 10:24:54;;;;;;;2.43;1.70;;;;;;;;;;5078511;28;20206;-64
2023/09/24 10:27:29;;;;;;;3.43;3.00;;;;;;;;;;5080372;28;20293;-67
2023/09/24 10:30:07;;;;;;;2.87;2.27;;;;;;;;;;5078715;28;20228;-66
2023/09/24 10:32:47;;;;;;;3.73;2.83;;;;;;;;;;5077868;28;20197;-64
2023/09/24 10:35:17;;;;;;;1.93;1.70;;;;;;;;;;5080802;28;20210;-65
2023/09/24 10:38:01;;;;;;;2.00;1.40;;;;;;;;;;5080736;28;20233;-67
2023/09/24 10:40:31;;;;;;;2.57;2.13;;;;;;;;;;5080498;28;20237;-64
2023/09/24 10:43:13;;;;;;;3.23;1.60;;;;;;;;;;5075896;28;20213;-63
2023/09/24 10:45:42;;;;;;;4.97;1.17;;;;;;;;;;5079100;28;20198;-63
2023/09/24 10:48:13;;;;;;;2.03;1.00;;;;;;;;;;5068585;28;20569;-63
2023/09/24 10:50:44;;;;;;;2.57;1.20;;;;;;;;;;5079850;28;20288;-63
2023/09/24 10:53:13;;;;;;;2.87;1.07;;;;;;;;;;5080099;28;20245;-64
2023/09/24 10:55:41;;;;;;;3.83;1.53;;;;;;;;;;5080417;28;20665;-63
2023/09/24 10:58:18;;;;;;;1.63;1.07;;;;;;;;;;5080701;28;20221;-64
2023/09/24 11:00:50;;;;;;;1.77;0.93;;;;;;;;;;5080249;28;20241;-63
2023/09/24 11:03:18;;;;;;;2.80;1.43;;;;;;;;;;5080414;28;20674;-63
2023/09/24 11:05:48;;;;;;;3.73;1.17;;;;;;;;;;5080699;28;20208;-64
2023/09/24 11:08:18;;;;;;;1.07;0.97;;;;;;;;;;5079754;28;20734;-65
2023/09/24 11:10:52;;;;;;;1.40;1.00;;;;;;;;;;5078445;28;20223;-62
2023/09/24 11:13:24;;;;;;;1.90;1.20;;;;;;;;;;5079830;28;20202;-64
2023/09/24 11:15:54;;;;;;;3.43;1.33;;;;;;;;;;5079411;28;20219;-63
2023/09/24 11:18:22;;;;;;;3.53;1.30;;;;;;;;;;5066909;28;20222;-63
2023/09/24 11:20:54;;;;;;;1.47;0.97;;;;;;;;;;5080349;28;20226;-64
2023/09/24 11:23:22;;;;;;;1.07;0.90;;;;;;;;;;5073344;28;20228;-65
2023/09/24 11:25:51;;;;;;;3.03;1.20;;;;;;;;;;5093462;28;20594;-65
2023/09/24 11:28:30;;;;;;;1.17;1.07;;;;;;;;;;5080550;28;20236;-66
2023/09/24 11:31:03;;;;;;;2.10;1.20;;;;;;;;;;5079882;28;20317;-65
2023/09/24 11:33:32;;;;;;;2.50;1.00;;;;;;;;;;5078875;28;20210;-65
2023/09/24 11:36:15;;;;;;;1.90;1.00;;;;;;;;;;5078650;28;20219;-65
2023/09/24 11:38:46;;;;;;;1.33;1.20;;;;;;;;;;5076065;28;20708;-64
2023/09/24 11:41:15;;;;;;;1.57;1.20;;;;;;;;;;5078117;28;20293;-64
2023/09/24 11:43:44;;;;;;;1.77;1.20;;;;;;;;;;5079809;28;20210;-66
2023/09/24 11:46:17;;;;;;;2.10;1.10;;;;;;;;;;5079352;28;20748;-64
2023/09/24 11:48:49;;;;;;;3.30;1.00;;;;;;;;;;5079832;28;20206;-65
2023/09/24 11:51:22;;;;;;;1.27;0.83;;;;;;;;;;5058966;28;20230;-66
2023/09/24 11:53:50;;;;;;;1.83;0.80;;;;;;;;;;5078241;28;20202;-64
2023/09/24 11:56:19;;;;;;;1.73;1.10;;;;;;;;;;5079569;28;20210;-65
2023/09/24 11:58:52;;;;;;;2.63;1.30;;;;;;;;;;5079267;28;20234;-66
2023/09/24 12:01:21;;;;;;;1.10;1.00;;;;;;;;;;5079043;28;20226;-65
2023/09/24 12:03:53;;;;;;;0.73;0.70;;;;;;;;;;5079031;28;20216;-64
2023/09/24 12:06:26;;;;;;;1.80;0.80;;;;;;;;;;5078384;28;20202;-66
2023/09/24 12:08:54;;;;;;;0.70;0.70;;;;;;;;;;5077870;28;20646;-64
2023/09/24 12:11:23;;;;;;;1.57;0.90;;;;;;;;;;5079032;28;20224;-65
2023/09/24 12:13:56;;;;;;;1.57;1.20;;;;;;;;;;5079352;28;20211;-65
2023/09/24 12:16:25;;;;;;;2.67;0.70;;;;;;;;;;5078210;28;20206;-65
2023/09/24 12:18:54;;;;;;;1.17;1.00;;;;;;;;;;5079213;28;20321;-65
2023/09/24 12:21:35;;;;;;;0.80;0.63;;;;;;;;;;5079130;28;20240;-65
2023/09/24 12:24:06;;;;;;;1.53;1.07;;;;;;;;;;5079125;28;20205;-65
2023/09/24 12:26:40;;;;;;;2.13;1.00;;;;;;;;;;5078306;28;20210;-66
2023/09/24 12:29:09;;;;;;;2.93;0.93;;;;;;;;;;5078512;28;20229;-66
2023/09/24 12:31:37;;;;;;;1.00;0.90;;;;;;;;;;5078587;28;20673;-66
2023/09/24 12:34:08;;;;;;;0.87;0.70;;;;;;;;;;5078827;28;20210;-65
2023/09/24 12:36:38;;;;;;;1.73;1.00;;;;;;;;;;5078925;28;20203;-66
2023/09/24 12:39:10;;;;;;;1.23;0.60;;;;;;;;;;5078651;28;20294;-65
2023/09/24 12:41:41;;;;;;;1.30;0.87;;;;;;;;;;5078330;28;20232;-66
2023/09/24 12:44:10;;;;;;;1.10;0.87;;;;;;;;;;5077074;28;20210;-66
2023/09/24 12:46:38;;;;;;;1.47;1.00;;;;;;;;;;5078460;28;20202;-66
2023/09/24 12:49:06;;;;;;;3.13;1.10;;;;;;;;;;5078116;28;20685;-65
2023/09/24 12:51:35;;;;;;;1.30;1.00;;;;;;;;;;5078212;28;20771;-66
2023/09/24 12:54:05;;;;;;;3.30;1.17;;;;;;;;;;5078146;28;20225;-65
2023/09/24 12:56:34;;;;;;;3.10;1.00;;;;;;;;;;5078179;28;20206;-64
2023/09/24 12:59:02;;;;;;;2.27;1.60;;;;;;;;;;5077832;28;20230;-64
2023/09/24 13:01:33;;;;;;;1.50;1.07;;;;;;;;;;5077857;28;20281;-64
2023/09/24 13:04:03;;;;;;;1.37;1.00;;;;;;;;;;5078193;28;20210;-65
2023/09/24 13:06:33;;;;;;;1.40;0.90;;;;;;;;;;5078573;28;20221;-64
2023/09/24 13:09:02;;;;;;;0.93;0.93;;;;;;;;;;5076689;28;20210;-66
2023/09/24 13:11:35;;;;;;;0.77;0.70;;;;;;;;;;5076544;28;20241;-64
2023/09/24 13:14:04;;;;;;;1.27;0.90;;;;;;;;;;5077000;28;20201;-65
2023/09/24 13:16:32;;;;;;;0.80;0.80;;;;;;;;;;5077849;28;20570;-65
2023/09/24 13:19:02;;;;;;;1.00;0.90;;;;;;;;;;5077723;28;20260;-64
2023/09/24 13:21:32;;;;;;;1.30;0.77;;;;;;;;;;5077648;28;20588;-64
2023/09/24 13:24:01;;;;;;;1.10;0.60;;;;;;;;;;5072731;28;20213;-64
2023/09/24 13:26:30;;;;;;;1.63;1.17;;;;;;;;;;5072390;28;20206;-65
2023/09/24 13:29:01;;;;;;;1.70;0.80;;;;;;;;;;5077638;28;20202;-65
2023/09/24 13:31:32;;;;;;;0.77;0.63;;;;;;;;;;5071317;28;20220;-64
2023/09/24 13:34:07;;;;;;;1.00;0.90;;;;;;;;;;5069992;28;20291;-65
2023/09/24 13:36:36;;;;;;;1.37;0.77;;;;;;;;;;5077847;28;20206;-63
2023/09/24 13:39:04;;;;;;;1.10;0.80;;;;;;;;;;5076397;28;20280;-64
2023/09/24 13:41:33;;;;;;;1.10;0.90;;;;;;;;;;5077579;28;20241;-64
2023/09/24 13:44:06;;;;;;;0.93;0.80;;;;;;;;;;5077576;28;20207;-64
2023/09/24 13:46:40;;;;;;;2.10;0.90;;;;;;;;;;5076999;28;20230;-64
2023/09/24 13:49:10;;;;;;;2.73;0.83;;;;;;;;;;5077580;28;20202;-64
2023/09/24 13:51:41;;;;;;;1.27;0.60;;;;;;;;;;5077597;28;20245;-65
2023/09/24 13:54:12;;;;;;;1.67;0.73;;;;;;;;;;5077720;28;20259;-65
2023/09/24 13:56:43;;;;;;;1.17;0.60;;;;;;;;;;5070796;28;20219;-65
2023/09/24 13:59:14;;;;;;;2.00;1.00;;;;;;;;;;5079639;28;20246;-64
2023/09/24 14:01:44;;;;;;;1.37;0.90;;;;;;;;;;5081829;28;20235;-64
2023/09/24 14:04:13;;;;;;;0.73;0.50;;;;;;;;;;5080346;28;20736;-64
2023/09/24 14:06:44;;;;;;;1.30;0.80;;;;;;;;;;5081643;28;20596;-64
2023/09/24 14:12:21;;;;;;;2.43;0.90;;;;;;;;;;5081197;28;20286;-64
2023/09/24 14:14:55;;;;;;;0.83;0.80;;;;;;;;;;5081675;28;20215;-64
2023/09/24 14:17:25;;;;;;;2.83;0.87;;;;;;;;;;5081829;28;20205;-65
2023/09/24 14:19:59;;;;;;;1.73;1.03;;;;;;;;;;5081113;28;20231;-64
2023/09/24 14:22:27;;;;;;;0.87;0.87;;;;;;;;;;5081318;28;20677;-66
2023/09/24 14:24:57;;;;;;;0.87;0.87;;;;;;;;;;5078985;28;20214;-65
2023/09/24 14:27:29;;;;;;;4.67;1.40;;;;;;;;;;5079907;28;20209;-64
2023/09/24 14:29:59;;;;;;;0.87;0.60;;;;;;;;;;5080123;28;20236;-64
2023/09/24 14:32:31;;;;;;;1.30;1.00;;;;;;;;;;5081226;28;20198;-64
2023/09/24 14:35:01;;;;;;;1.00;0.90;;;;;;;;;;5081130;28;20206;-65
2023/09/24 14:37:32;;;;;;;0.80;0.80;;;;;;;;;;5080862;28;20321;-64
2023/09/24 14:40:04;;;;;;;0.90;0.70;;;;;;;;;;5080741;28;20252;-64
2023/09/24 14:42:39;;;;;;;1.10;0.90;;;;;;;;;;5081266;28;20201;-64
2023/09/24 14:45:11;;;;;;;1.40;0.93;;;;;;;;;;5067376;28;20260;-65
2023/09/24 14:47:44;;;;;;;1.07;0.90;;;;;;;;;;5080733;28;20208;-65
2023/09/24 14:50:13;;;;;;;1.40;1.00;;;;;;;;;;5079538;28;20225;-64
2023/09/24 14:52:42;;;;;;;2.23;0.97;;;;;;;;;;5079381;28;20244;-64
2023/09/24 14:55:11;;;;;;;1.13;0.93;;;;;;;;;;5080297;28;20670;-64
2023/09/24 14:57:43;;;;;;;1.00;0.80;;;;;;;;;;5079343;28;20714;-64
2023/09/24 15:00:17;;;;;;;1.43;1.03;;;;;;;;;;5080276;28;20229;-64
2023/09/24 15:02:55;;;;;;;1.50;0.80;;;;;;;;;;5080395;28;20216;-65